sensor_id;sensor_type;location;lat;lon;timestamp;pressure;altitude;pressure_sealevel;temperature;humidity
79075;BME280;68476;42.710;23.388;2024-02-26T00:00:15;95171.66;;;5.29;100.00
79075;BME280;68476;42.710;23.388;2024-02-26T00:02:41;95175.81;;;5.31;100.00
79075;BME280;68476;42.710;23.388;2024-02-26T00:05:07;95177.44;;;5.25;100.00
79075;BME280;68476;42.710;23.388;2024-02-26T00:07:33;95178.69;;;5.16;100.00
79075;BME280;68476;42.710;23.388;2024-02-26T00:09:59;95178.88;;;5.01;100.00
79075;BME280;68476;42.710;23.388;2024-02-26T00:12:24;95170.06;;;4.79;100.00
79075;BME280;68476;42.710;23.388;2024-02-26T00:14:50;95167.00;;;4.89;100.00
79075;BME280;68476;42.710;23.388;2024-02-26T00:17:15;95156.16;;;4.82;100.00
79075;BME280;68476;42.710;23.388;2024-02-26T00:19:41;95160.41;;;4.50;100.00
79075;BME280;68476;42.710;23.388;2024-02-26T00:22:07;95178.63;;;4.34;100.00
79075;BME280;68476;42.710;23.388;2024-02-26T00:24:32;95179.72;;;4.46;100.00
79075;BME280;68476;42.710;23.388;2024-02-26T00:26:59;95163.53;;;4.53;100.00
79075;BME280;68476;42.710;23.388;2024-02-26T00:29:24;95167.72;;;4.56;100.00
79075;BME280;68476;42.710;23.388;2024-02-26T00:31:51;95151.34;;;4.64;100.00
79075;BME280;68476;42.710;23.388;2024-02-26T00:34:16;95156.75;;;4.71;100.00
79075;BME280;68476;42.710;23.388;2024-02-26T00:36:42;95154.09;;;4.77;100.00
79075;BME280;68476;42.710;23.388;2024-02-26T00:39:08;95152.03;;;4.80;100.00
79075;BME280;68476;42.710;23.388;2024-02-26T00:41:38;95139.16;;;4.82;100.00
79075;BME280;68476;42.710;23.388;2024-02-26T00:44:03;95134.19;;;4.92;100.00
79075;BME280;68476;42.710;23.388;2024-02-26T00:46:29;95127.31;;;4.89;100.00
79075;BME280;68476;42.710;23.388;2024-02-26T00:48:54;95139.75;;;4.84;100.00
79075;BME280;68476;42.710;23.388;2024-02-26T00:51:20;95142.09;;;5.00;100.00
79075;BME280;68476;42.710;23.388;2024-02-26T00:53:45;95137.25;;;4.75;100.00
79075;BME280;68476;42.710;23.388;2024-02-26T00:56:11;95125.22;;;4.85;100.00
79075;BME280;68476;42.710;23.388;2024-02-26T00:58:36;95125.66;;;4.82;100.00
79075;BME280;68476;42.710;23.388;2024-02-26T01:01:02;95134.53;;;4.69;100.00
79075;BME280;68476;42.710;23.388;2024-02-26T01:03:28;95124.38;;;4.71;100.00
79075;BME280;68476;42.710;23.388;2024-02-26T01:05:54;95125.41;;;4.70;100.00
79075;BME280;68476;42.710;23.388;2024-02-26T01:08:19;95116.50;;;4.76;100.00
79075;BME280;68476;42.710;23.388;2024-02-26T01:10:45;95120.25;;;4.82;100.00
79075;BME280;68476;42.710;23.388;2024-02-26T01:13:10;95116.53;;;4.96;100.00
79075;BME280;68476;42.710;23.388;2024-02-26T01:15:36;95118.44;;;5.16;100.00
79075;BME280;68476;42.710;23.388;2024-02-26T01:18:01;95121.31;;;5.07;100.00
79075;BME280;68476;42.710;23.388;2024-02-26T01:20:27;95116.94;;;5.06;100.00
79075;BME280;68476;42.710;23.388;2024-02-26T01:22:52;95115.28;;;5.12;100.00
79075;BME280;68476;42.710;23.388;2024-02-26T01:25:18;95117.19;;;5.12;100.00
79075;BME280;68476;42.710;23.388;2024-02-26T01:27:43;95119.25;;;5.09;100.00
79075;BME280;68476;42.710;23.388;2024-02-26T01:30:10;95111.34;;;5.01;100.00
79075;BME280;68476;42.710;23.388;2024-02-26T01:32:36;95115.50;;;5.04;100.00
79075;BME280;68476;42.710;23.388;2024-02-26T01:35:02;95113.22;;;5.07;100.00
79075;BME280;68476;42.710;23.388;2024-02-26T01:37:32;95114.25;;;5.13;100.00
79075;BME280;68476;42.710;23.388;2024-02-26T01:39:58;95115.13;;;5.20;100.00
79075;BME280;68476;42.710;23.388;2024-02-26T01:42:23;95110.75;;;5.26;100.00
79075;BME280;68476;42.710;23.388;2024-02-26T01:44:49;95104.50;;;5.32;100.00
79075;BME280;68476;42.710;23.388;2024-02-26T01:47:14;95104.72;;;5.24;100.00
79075;BME280;68476;42.710;23.388;2024-02-26T01:49:40;95106.81;;;5.29;100.00
79075;BME280;68476;42.710;23.388;2024-02-26T01:52:07;95105.53;;;5.31;100.00
79075;BME280;68476;42.710;23.388;2024-02-26T01:54:37;95097.66;;;5.36;100.00
79075;BME280;68476;42.710;23.388;2024-02-26T01:57:05;95102.03;;;5.37;100.00
79075;BME280;68476;42.710;23.388;2024-02-26T01:59:32;95096.41;;;5.32;100.00
79075;BME280;68476;42.710;23.388;2024-02-26T02:02:01;95098.06;;;5.33;100.00
79075;BME280;68476;42.710;23.388;2024-02-26T02:04:27;95090.59;;;5.42;100.00
79075;BME280;68476;42.710;23.388;2024-02-26T02:06:53;95091.41;;;5.36;100.00
79075;BME280;68476;42.710;23.388;2024-02-26T02:09:19;95088.94;;;5.48;100.00
79075;BME280;68476;42.710;23.388;2024-02-26T02:11:46;95091.22;;;5.51;100.00
79075;BME280;68476;42.710;23.388;2024-02-26T02:14:13;95088.31;;;5.46;100.00
79075;BME280;68476;42.710;23.388;2024-02-26T02:16:39;95092.25;;;5.43;100.00
79075;BME280;68476;42.710;23.388;2024-02-26T02:19:04;95096.81;;;5.49;100.00
79075;BME280;68476;42.710;23.388;2024-02-26T02:21:30;95092.44;;;5.55;100.00
79075;BME280;68476;42.710;23.388;2024-02-26T02:23:55;95091.00;;;5.59;100.00
79075;BME280;68476;42.710;23.388;2024-02-26T02:26:21;95091.00;;;5.59;100.00
79075;BME280;68476;42.710;23.388;2024-02-26T02:28:46;95087.25;;;5.60;100.00
79075;BME280;68476;42.710;23.388;2024-02-26T02:31:13;95098.88;;;5.67;100.00
79075;BME280;68476;42.710;23.388;2024-02-26T02:33:39;95103.47;;;5.67;100.00
79075;BME280;68476;42.710;23.388;2024-02-26T02:36:06;95104.72;;;5.64;100.00
79075;BME280;68476;42.710;23.388;2024-02-26T02:38:38;95100.16;;;5.31;100.00
79075;BME280;68476;42.710;23.388;2024-02-26T02:41:04;95106.38;;;5.25;100.00
79075;BME280;68476;42.710;23.388;2024-02-26T02:43:30;95088.75;;;5.29;100.00
79075;BME280;68476;42.710;23.388;2024-02-26T02:45:55;95093.06;;;5.30;100.00
79075;BME280;68476;42.710;23.388;2024-02-26T02:48:21;95105.78;;;5.36;100.00
79075;BME280;68476;42.710;23.388;2024-02-26T02:50:46;95097.88;;;5.28;100.00
79075;BME280;68476;42.710;23.388;2024-02-26T02:53:12;95105.56;;;5.11;100.00
79075;BME280;68476;42.710;23.388;2024-02-26T02:55:37;95106.78;;;5.08;100.00
79075;BME280;68476;42.710;23.388;2024-02-26T02:58:03;95116.38;;;5.11;100.00
79075;BME280;68476;42.710;23.388;2024-02-26T03:00:28;95115.91;;;5.07;100.00
79075;BME280;68476;42.710;23.388;2024-02-26T03:02:54;95104.94;;;5.09;100.00
79075;BME280;68476;42.710;23.388;2024-02-26T03:05:19;95097.25;;;5.13;100.00
79075;BME280;68476;42.710;23.388;2024-02-26T03:07:45;95103.69;;;5.12;100.00
79075;BME280;68476;42.710;23.388;2024-02-26T03:10:10;95105.97;;;5.21;100.00
79075;BME280;68476;42.710;23.388;2024-02-26T03:12:36;95118.00;;;5.19;100.00
79075;BME280;68476;42.710;23.388;2024-02-26T03:15:02;95117.84;;;5.34;100.00
79075;BME280;68476;42.710;23.388;2024-02-26T03:17:30;95114.09;;;5.35;100.00
79075;BME280;68476;42.710;23.388;2024-02-26T03:19:55;95109.50;;;5.22;100.00
79075;BME280;68476;42.710;23.388;2024-02-26T03:22:21;95108.06;;;5.39;100.00
79075;BME280;68476;42.710;23.388;2024-02-26T03:24:47;95108.66;;;5.15;100.00
79075;BME280;68476;42.710;23.388;2024-02-26T03:27:14;95104.94;;;5.09;100.00
79075;BME280;68476;42.710;23.388;2024-02-26T03:29:39;95109.84;;;4.78;100.00
79075;BME280;68476;42.710;23.388;2024-02-26T03:32:05;95101.88;;;4.50;100.00
79075;BME280;68476;42.710;23.388;2024-02-26T03:34:32;95096.41;;;4.30;100.00
79075;BME280;68476;42.710;23.388;2024-02-26T03:37:00;95090.09;;;4.09;100.00
79075;BME280;68476;42.710;23.388;2024-02-26T03:39:25;95088.66;;;4.13;100.00
79075;BME280;68476;42.710;23.388;2024-02-26T03:41:51;95096.31;;;4.10;100.00
79075;BME280;68476;42.710;23.388;2024-02-26T03:44:16;95093.66;;;4.16;100.00
79075;BME280;68476;42.710;23.388;2024-02-26T03:46:41;95095.28;;;4.11;100.00
79075;BME280;68476;42.710;23.388;2024-02-26T03:49:10;95095.13;;;4.26;100.00
79075;BME280;68476;42.710;23.388;2024-02-26T03:51:35;95096.88;;;4.40;100.00
79075;BME280;68476;42.710;23.388;2024-02-26T03:54:01;95090.03;;;4.44;100.00
79075;BME280;68476;42.710;23.388;2024-02-26T03:56:27;95082.56;;;4.40;100.00
79075;BME280;68476;42.710;23.388;2024-02-26T03:58:53;95090.03;;;4.44;100.00
79075;BME280;68476;42.710;23.388;2024-02-26T04:01:18;95092.56;;;4.59;100.00
79075;BME280;68476;42.710;23.388;2024-02-26T04:03:44;95083.06;;;4.70;100.00
79075;BME280;68476;42.710;23.388;2024-02-26T04:06:10;95089.03;;;4.66;100.00
79075;BME280;68476;42.710;23.388;2024-02-26T04:08:36;95093.00;;;4.63;100.00
79075;BME280;68476;42.710;23.388;2024-02-26T04:11:02;95083.59;;;4.45;100.00
79075;BME280;68476;42.710;23.388;2024-02-26T04:13:32;95090.44;;;4.41;100.00
79075;BME280;68476;42.710;23.388;2024-02-26T04:15:58;95084.19;;;4.34;100.00
79075;BME280;68476;42.710;23.388;2024-02-26T04:18:23;95072.34;;;4.28;100.00
79075;BME280;68476;42.710;23.388;2024-02-26T04:20:49;95071.53;;;4.41;100.00
79075;BME280;68476;42.710;23.388;2024-02-26T04:23:16;95071.75;;;4.40;100.00
79075;BME280;68476;42.710;23.388;2024-02-26T04:25:42;95074.19;;;4.28;100.00
79075;BME280;68476;42.710;23.388;2024-02-26T04:28:07;95063.84;;;4.38;100.00
79075;BME280;68476;42.710;23.388;2024-02-26T04:30:33;95074.81;;;4.23;100.00
79075;BME280;68476;42.710;23.388;2024-02-26T04:32:58;95080.00;;;4.31;100.00
79075;BME280;68476;42.710;23.388;2024-02-26T04:35:23;95071.28;;;4.29;100.00
79075;BME280;68476;42.710;23.388;2024-02-26T04:37:49;95066.09;;;4.28;100.00
79075;BME280;68476;42.710;23.388;2024-02-26T04:40:15;95085.47;;;4.45;100.00
79075;BME280;68476;42.710;23.388;2024-02-26T04:42:40;95080.84;;;4.32;100.00
79075;BME280;68476;42.710;23.388;2024-02-26T04:45:06;95081.69;;;4.32;100.00
79075;BME280;68476;42.710;23.388;2024-02-26T04:47:33;95084.59;;;4.31;100.00
79075;BME280;68476;42.710;23.388;2024-02-26T04:49:59;95077.56;;;4.37;100.00
79075;BME280;68476;42.710;23.388;2024-02-26T04:52:25;95080.47;;;4.42;100.00
79075;BME280;68476;42.710;23.388;2024-02-26T04:54:51;95085.03;;;4.41;100.00
79075;BME280;68476;42.710;23.388;2024-02-26T04:57:16;95086.91;;;4.47;100.00
79075;BME280;68476;42.710;23.388;2024-02-26T04:59:44;95089.84;;;4.53;100.00
79075;BME280;68476;42.710;23.388;2024-02-26T05:02:11;95081.78;;;4.66;100.00
79075;BME280;68476;42.710;23.388;2024-02-26T05:04:37;95087.63;;;4.76;100.00
79075;BME280;68476;42.710;23.388;2024-02-26T05:07:02;95078.91;;;4.81;100.00
79075;BME280;68476;42.710;23.388;2024-02-26T05:09:28;95088.47;;;4.84;100.00
79075;BME280;68476;42.710;23.388;2024-02-26T05:11:54;95093.47;;;4.87;100.00
79075;BME280;68476;42.710;23.388;2024-02-26T05:14:19;95086.41;;;4.92;100.00
79075;BME280;68476;42.710;23.388;2024-02-26T05:16:45;95100.94;;;4.91;100.00
79075;BME280;68476;42.710;23.388;2024-02-26T05:19:11;95104.25;;;4.87;100.00
79075;BME280;68476;42.710;23.388;2024-02-26T05:21:36;95108.00;;;4.92;100.00
79075;BME280;68476;42.710;23.388;2024-02-26T05:24:02;95110.50;;;4.94;100.00
79075;BME280;68476;42.710;23.388;2024-02-26T05:26:27;95113.84;;;5.03;100.00
79075;BME280;68476;42.710;23.388;2024-02-26T05:28:53;95115.88;;;4.94;100.00
79075;BME280;68476;42.710;23.388;2024-02-26T05:31:18;95118.00;;;4.99;100.00
79075;BME280;68476;42.710;23.388;2024-02-26T05:33:44;95121.94;;;5.09;100.00
79075;BME280;68476;42.710;23.388;2024-02-26T05:36:09;95119.25;;;5.16;100.00
79075;BME280;68476;42.710;23.388;2024-02-26T05:38:35;95128.19;;;5.23;100.00
79075;BME280;68476;42.710;23.388;2024-02-26T05:41:00;95131.97;;;5.29;100.00
79075;BME280;68476;42.710;23.388;2024-02-26T05:43:26;95135.91;;;5.33;100.00
79075;BME280;68476;42.710;23.388;2024-02-26T05:45:52;95133.00;;;5.35;100.00
79075;BME280;68476;42.710;23.388;2024-02-26T05:48:18;95130.72;;;5.38;100.00
79075;BME280;68476;42.710;23.388;2024-02-26T05:50:45;95128.63;;;5.47;100.00
79075;BME280;68476;42.710;23.388;2024-02-26T05:53:10;95138.41;;;5.55;100.00
79075;BME280;68476;42.710;23.388;2024-02-26T05:55:36;95134.03;;;5.54;100.00
79075;BME280;68476;42.710;23.388;2024-02-26T05:58:01;95134.88;;;5.68;100.00
79075;BME280;68476;42.710;23.388;2024-02-26T06:00:27;95149.00;;;5.77;100.00
79075;BME280;68476;42.710;23.388;2024-02-26T06:02:52;95151.50;;;5.85;100.00
79075;BME280;68476;42.710;23.388;2024-02-26T06:05:18;95153.81;;;5.68;100.00
79075;BME280;68476;42.710;23.388;2024-02-26T06:07:43;95153.81;;;5.75;100.00
79075;BME280;68476;42.710;23.388;2024-02-26T06:10:09;95157.94;;;5.44;100.00
79075;BME280;68476;42.710;23.388;2024-02-26T06:12:35;95161.28;;;5.52;100.00
79075;BME280;68476;42.710;23.388;2024-02-26T06:15:01;95155.66;;;5.40;100.00
79075;BME280;68476;42.710;23.388;2024-02-26T06:17:27;95162.94;;;5.47;100.00
79075;BME280;68476;42.710;23.388;2024-02-26T06:19:53;95169.16;;;5.54;100.00
79075;BME280;68476;42.710;23.388;2024-02-26T06:22:18;95155.06;;;5.52;100.00
79075;BME280;68476;42.710;23.388;2024-02-26T06:24:44;95153.34;;;5.71;100.00
79075;BME280;68476;42.710;23.388;2024-02-26T06:27:09;95151.91;;;5.62;100.00
79075;BME280;68476;42.710;23.388;2024-02-26T06:29:35;95157.94;;;5.64;100.00
79075;BME280;68476;42.710;23.388;2024-02-26T06:32:00;95161.47;;;5.78;100.00
79075;BME280;68476;42.710;23.388;2024-02-26T06:34:26;95160.03;;;5.82;100.00
79075;BME280;68476;42.710;23.388;2024-02-26T06:36:51;95163.75;;;5.94;100.00
79075;BME280;68476;42.710;23.388;2024-02-26T06:39:17;95166.88;;;5.91;100.00
79075;BME280;68476;42.710;23.388;2024-02-26T06:41:43;95163.53;;;5.89;100.00
79075;BME280;68476;42.710;23.388;2024-02-26T06:44:09;95159.78;;;5.90;100.00
79075;BME280;68476;42.710;23.388;2024-02-26T06:46:34;95158.56;;;6.06;100.00
79075;BME280;68476;42.710;23.388;2024-02-26T06:49:00;95153.97;;;6.20;100.00
79075;BME280;68476;42.710;23.388;2024-02-26T06:51:25;95150.59;;;6.31;100.00
79075;BME280;68476;42.710;23.388;2024-02-26T06:53:51;95155.25;;;6.11;100.00
79075;BME280;68476;42.710;23.388;2024-02-26T06:56:16;95156.41;;;6.42;100.00
79075;BME280;68476;42.710;23.388;2024-02-26T06:58:42;95160.56;;;6.38;100.00
79075;BME280;68476;42.710;23.388;2024-02-26T07:01:08;95154.06;;;6.52;100.00
79075;BME280;68476;42.710;23.388;2024-02-26T07:03:34;95157.03;;;6.44;100.00
79075;BME280;68476;42.710;23.388;2024-02-26T07:05:59;95152.06;;;6.34;100.00
79075;BME280;68476;42.710;23.388;2024-02-26T07:08:25;95162.00;;;6.47;100.00
79075;BME280;68476;42.710;23.388;2024-02-26T07:10:50;95159.88;;;6.62;100.00
79075;BME280;68476;42.710;23.388;2024-02-26T07:13:16;95169.00;;;6.68;100.00
79075;BME280;68476;42.710;23.388;2024-02-26T07:15:41;95168.16;;;6.74;100.00
79075;BME280;68476;42.710;23.388;2024-02-26T07:18:07;95168.16;;;6.81;100.00
79075;BME280;68476;42.710;23.388;2024-02-26T07:20:32;95169.84;;;6.69;100.00
79075;BME280;68476;42.710;23.388;2024-02-26T07:23:07;95171.47;;;6.76;100.00
79075;BME280;68476;42.710;23.388;2024-02-26T07:25:34;95173.94;;;6.85;100.00
79075;BME280;68476;42.710;23.388;2024-02-26T07:28:01;95180.59;;;6.89;100.00
79075;BME280;68476;42.710;23.388;2024-02-26T07:30:26;95173.94;;;6.85;100.00
79075;BME280;68476;42.710;23.388;2024-02-26T07:32:53;95175.00;;;6.84;100.00
79075;BME280;68476;42.710;23.388;2024-02-26T07:35:18;95167.72;;;7.23;100.00
79075;BME280;68476;42.710;23.388;2024-02-26T07:37:44;95176.63;;;7.30;100.00
79075;BME280;68476;42.710;23.388;2024-02-26T07:40:09;95171.88;;;7.25;100.00
79075;BME280;68476;42.710;23.388;2024-02-26T07:42:35;95177.28;;;7.58;100.00
79075;BME280;68476;42.710;23.388;2024-02-26T07:45:01;95174.19;;;7.79;100.00
79075;BME280;68476;42.710;23.388;2024-02-26T07:47:27;95179.19;;;7.82;100.00
79075;BME280;68476;42.710;23.388;2024-02-26T07:49:52;95174.59;;;8.27;100.00
79075;BME280;68476;42.710;23.388;2024-02-26T07:52:18;95181.00;;;8.14;100.00
79075;BME280;68476;42.710;23.388;2024-02-26T07:54:43;95178.41;;;7.75;100.00
79075;BME280;68476;42.710;23.388;2024-02-26T07:57:08;95177.41;;;7.95;100.00
79075;BME280;68476;42.710;23.388;2024-02-26T07:59:34;95175.75;;;7.94;100.00
79075;BME280;68476;42.710;23.388;2024-02-26T08:02:00;95173.91;;;8.13;100.00
79075;BME280;68476;42.710;23.388;2024-02-26T08:04:28;95174.41;;;8.47;100.00
79075;BME280;68476;42.710;23.388;2024-02-26T08:06:53;95173.31;;;8.29;100.00
79075;BME280;68476;42.710;23.388;2024-02-26T08:09:19;95164.28;;;8.36;100.00
79075;BME280;68476;42.710;23.388;2024-02-26T08:11:44;95165.59;;;8.70;100.00
79075;BME280;68476;42.710;23.388;2024-02-26T08:14:10;95163.19;;;8.62;100.00
79075;BME280;68476;42.710;23.388;2024-02-26T08:16:35;95157.53;;;8.82;100.00
79075;BME280;68476;42.710;23.388;2024-02-26T08:19:01;95153.09;;;9.00;100.00
79075;BME280;68476;42.710;23.388;2024-02-26T08:21:26;95153.91;;;9.19;100.00
79075;BME280;68476;42.710;23.388;2024-02-26T08:23:52;95161.34;;;9.23;100.00
79075;BME280;68476;42.710;23.388;2024-02-26T08:26:17;95154.59;;;9.14;100.00
79075;BME280;68476;42.710;23.388;2024-02-26T08:28:45;95150.19;;;9.44;100.00
79075;BME280;68476;42.710;23.388;2024-02-26T08:31:12;95150.28;;;9.79;100.00
79075;BME280;68476;42.710;23.388;2024-02-26T08:33:38;95150.75;;;9.88;100.00
79075;BME280;68476;42.710;23.388;2024-02-26T08:36:05;95148.28;;;9.86;100.00
79075;BME280;68476;42.710;23.388;2024-02-26T08:38:30;95157.66;;;9.91;100.00
79075;BME280;68476;42.710;23.388;2024-02-26T08:40:56;95149.72;;;10.01;100.00
79075;BME280;68476;42.710;23.388;2024-02-26T08:43:21;95147.69;;;10.32;100.00
79075;BME280;68476;42.710;23.388;2024-02-26T08:45:47;95146.63;;;10.33;100.00
79075;BME280;68476;42.710;23.388;2024-02-26T08:48:12;95148.56;;;10.56;100.00
79075;BME280;68476;42.710;23.388;2024-02-26T08:50:37;95140.00;;;10.64;100.00
79075;BME280;68476;42.710;23.388;2024-02-26T08:53:03;95149.13;;;11.11;100.00
79075;BME280;68476;42.710;23.388;2024-02-26T08:55:29;95143.00;;;10.92;100.00
79075;BME280;68476;42.710;23.388;2024-02-26T08:57:54;95143.34;;;10.95;100.00
79075;BME280;68476;42.710;23.388;2024-02-26T09:00:20;95144.94;;;11.20;100.00
79075;BME280;68476;42.710;23.388;2024-02-26T09:02:49;95146.47;;;11.45;100.00
79075;BME280;68476;42.710;23.388;2024-02-26T09:05:15;95143.72;;;11.74;100.00
79075;BME280;68476;42.710;23.388;2024-02-26T09:07:41;95138.78;;;11.42;100.00
79075;BME280;68476;42.710;23.388;2024-02-26T09:10:06;95140.84;;;11.81;100.00
79075;BME280;68476;42.710;23.388;2024-02-26T09:12:36;95137.44;;;11.91;100.00
79075;BME280;68476;42.710;23.388;2024-02-26T09:15:01;95136.47;;;12.31;100.00
79075;BME280;68476;42.710;23.388;2024-02-26T09:17:27;95134.91;;;12.01;100.00
79075;BME280;68476;42.710;23.388;2024-02-26T09:19:52;95134.69;;;11.91;100.00
79075;BME280;68476;42.710;23.388;2024-02-26T09:22:17;95127.28;;;12.03;100.00
79075;BME280;68476;42.710;23.388;2024-02-26T09:24:43;95124.53;;;12.20;100.00
79075;BME280;68476;42.710;23.388;2024-02-26T09:27:08;95116.97;;;12.44;100.00
79075;BME280;68476;42.710;23.388;2024-02-26T09:29:35;95118.72;;;12.33;100.00
79075;BME280;68476;42.710;23.388;2024-02-26T09:32:01;95121.19;;;12.35;100.00
79075;BME280;68476;42.710;23.388;2024-02-26T09:34:26;95106.19;;;12.77;100.00
79075;BME280;68476;42.710;23.388;2024-02-26T09:36:52;95101.56;;;12.77;100.00
79075;BME280;68476;42.710;23.388;2024-02-26T09:39:17;95094.78;;;13.07;100.00
79075;BME280;68476;42.710;23.388;2024-02-26T09:41:47;95100.47;;;12.78;100.00
79075;BME280;68476;42.710;23.388;2024-02-26T09:44:20;95104.59;;;12.59;100.00
79075;BME280;68476;42.710;23.388;2024-02-26T09:46:47;95096.00;;;12.94;100.00
79075;BME280;68476;42.710;23.388;2024-02-26T09:49:15;95091.44;;;13.50;100.00
79075;BME280;68476;42.710;23.388;2024-02-26T09:51:41;95093.47;;;13.10;100.00
79075;BME280;68476;42.710;23.388;2024-02-26T09:54:09;95091.34;;;12.95;100.00
79075;BME280;68476;42.710;23.388;2024-02-26T09:56:37;95094.22;;;13.05;100.00
79075;BME280;68476;42.710;23.388;2024-02-26T09:59:06;95095.66;;;13.13;100.00
79075;BME280;68476;42.710;23.388;2024-02-26T10:01:37;95089.06;;;13.09;100.00
79075;BME280;68476;42.710;23.388;2024-02-26T10:04:04;95098.16;;;13.15;100.00
79075;BME280;68476;42.710;23.388;2024-02-26T10:06:30;95089.84;;;12.82;100.00
79075;BME280;68476;42.710;23.388;2024-02-26T10:08:56;95095.84;;;13.29;100.00
79075;BME280;68476;42.710;23.388;2024-02-26T10:11:24;95094.88;;;13.18;100.00
79075;BME280;68476;42.710;23.388;2024-02-26T10:13:49;95086.69;;;13.40;100.00
79075;BME280;68476;42.710;23.388;2024-02-26T10:16:16;95086.19;;;13.21;100.00
79075;BME280;68476;42.710;23.388;2024-02-26T10:18:51;95086.66;;;13.13;100.00
79075;BME280;68476;42.710;23.388;2024-02-26T10:21:21;95073.44;;;13.32;100.00
79075;BME280;68476;42.710;23.388;2024-02-26T10:23:48;95079.31;;;13.73;100.00
79075;BME280;68476;42.710;23.388;2024-02-26T10:26:14;95073.44;;;13.59;100.00
79075;BME280;68476;42.710;23.388;2024-02-26T10:28:44;95075.31;;;13.53;100.00
79075;BME280;68476;42.710;23.388;2024-02-26T10:31:10;95084.00;;;13.78;100.00
79075;BME280;68476;42.710;23.388;2024-02-26T10:33:37;95068.78;;;13.32;100.00
79075;BME280;68476;42.710;23.388;2024-02-26T10:36:06;95065.25;;;13.37;100.00
79075;BME280;68476;42.710;23.388;2024-02-26T10:38:34;95056.69;;;13.88;100.00
79075;BME280;68476;42.710;23.388;2024-02-26T10:41:02;95058.56;;;14.20;100.00
79075;BME280;68476;42.710;23.388;2024-02-26T10:43:27;95053.34;;;13.81;100.00
79075;BME280;68476;42.710;23.388;2024-02-26T10:45:55;95058.25;;;13.79;100.00
79075;BME280;68476;42.710;23.388;2024-02-26T10:48:21;95049.09;;;13.95;74.42
79075;BME280;68476;42.710;23.388;2024-02-26T10:50:47;95050.75;;;13.96;70.62
79075;BME280;68476;42.710;23.388;2024-02-26T10:53:17;95038.69;;;14.40;69.49
79075;BME280;68476;42.710;23.388;2024-02-26T10:55:54;95042.88;;;14.63;70.29
79075;BME280;68476;42.710;23.388;2024-02-26T10:58:21;95047.16;;;13.96;68.99
79075;BME280;68476;42.710;23.388;2024-02-26T11:00:49;95037.09;;;14.55;68.85
79075;BME280;68476;42.710;23.388;2024-02-26T11:03:15;95033.31;;;13.75;69.89
79075;BME280;68476;42.710;23.388;2024-02-26T11:05:44;95038.97;;;14.44;67.60
79075;BME280;68476;42.710;23.388;2024-02-26T11:08:11;95026.50;;;14.74;67.17
79075;BME280;68476;42.710;23.388;2024-02-26T11:10:37;95032.84;;;14.74;66.34
79075;BME280;68476;42.710;23.388;2024-02-26T11:13:05;95033.69;;;14.95;67.07
79075;BME280;68476;42.710;23.388;2024-02-26T11:15:32;95042.13;;;14.20;66.81
79075;BME280;68476;42.710;23.388;2024-02-26T11:17:59;95039.97;;;14.27;65.62
79075;BME280;68476;42.710;23.388;2024-02-26T11:20:28;95025.69;;;14.25;65.85
79075;BME280;68476;42.710;23.388;2024-02-26T11:22:54;95030.13;;;14.31;64.78
79075;BME280;68476;42.710;23.388;2024-02-26T11:25:19;95031.63;;;14.60;64.03
79075;BME280;68476;42.710;23.388;2024-02-26T11:27:51;95031.34;;;14.61;64.48
79075;BME280;68476;42.710;23.388;2024-02-26T11:30:18;95026.97;;;14.55;63.86
79075;BME280;68476;42.710;23.388;2024-02-26T11:32:45;95027.28;;;14.16;63.73
79075;BME280;68476;42.710;23.388;2024-02-26T11:35:16;95029.47;;;14.09;62.94
79075;BME280;68476;42.710;23.388;2024-02-26T11:37:52;95030.44;;;13.92;63.08
79075;BME280;68476;42.710;23.388;2024-02-26T11:40:18;95026.59;;;13.93;63.73
79075;BME280;68476;42.710;23.388;2024-02-26T11:42:44;95016.47;;;14.42;62.28
79075;BME280;68476;42.710;23.388;2024-02-26T11:48:04;95022.34;;;14.13;63.26
79075;BME280;68476;42.710;23.388;2024-02-26T11:50:38;95017.19;;;14.16;62.77
79075;BME280;68476;42.710;23.388;2024-02-26T11:53:22;95011.38;;;14.08;62.54
79075;BME280;68476;42.710;23.388;2024-02-26T11:56:09;95013.09;;;14.24;62.45
79075;BME280;68476;42.710;23.388;2024-02-26T11:58:34;95011.75;;;14.27;62.17
79075;BME280;68476;42.710;23.388;2024-02-26T12:00:59;95006.88;;;14.44;61.17
79075;BME280;68476;42.710;23.388;2024-02-26T12:03:25;95006.03;;;14.39;61.26
79075;BME280;68476;42.710;23.388;2024-02-26T12:05:51;95007.53;;;14.09;61.38
79075;BME280;68476;42.710;23.388;2024-02-26T12:08:17;95008.00;;;14.48;61.35
79075;BME280;68476;42.710;23.388;2024-02-26T12:10:45;95012.38;;;14.39;60.95
79075;BME280;68476;42.710;23.388;2024-02-26T12:13:13;95002.41;;;14.86;59.80
79075;BME280;68476;42.710;23.388;2024-02-26T12:18:06;95009.63;;;15.34;59.09
79075;BME280;68476;42.710;23.388;2024-02-26T12:20:33;95008.16;;;14.79;59.80
79075;BME280;68476;42.710;23.388;2024-02-26T12:22:59;95009.53;;;14.87;58.59
79075;BME280;68476;42.710;23.388;2024-02-26T12:25:26;95001.25;;;14.72;58.74
79075;BME280;68476;42.710;23.388;2024-02-26T12:27:53;95006.03;;;15.13;58.42
79075;BME280;68476;42.710;23.388;2024-02-26T12:30:19;95001.34;;;15.08;58.62
79075;BME280;68476;42.710;23.388;2024-02-26T12:32:46;95013.75;;;15.21;57.12
79075;BME280;68476;42.710;23.388;2024-02-26T12:35:13;95010.69;;;15.12;56.96
79075;BME280;68476;42.710;23.388;2024-02-26T12:37:39;95015.69;;;15.36;56.72
79075;BME280;68476;42.710;23.388;2024-02-26T12:40:11;95009.63;;;15.65;55.87
79075;BME280;68476;42.710;23.388;2024-02-26T12:42:38;95012.13;;;16.02;55.24
79075;BME280;68476;42.710;23.388;2024-02-26T12:45:09;95012.16;;;15.92;55.14
79075;BME280;68476;42.710;23.388;2024-02-26T12:47:42;95011.84;;;15.73;55.15